Time;durP1;ratioP1;P1;durP2;ratioP2;P2;SDS_P1;SDS_P2;PMS_P1;PMS_P2;Temp;Humidity;BMP_temperature;BMP_pressure;BME280_temperature;BME280_humidity;BME280_pressure;Samples;Min_cycle;Max_cycle;Signal;HPM_P1;HPM_P2
2023/05/15 00:01:43;;;;;;;6.10;3.00;;;;;;;13.47;54.67;101355.68;107635;1251;97822;-69
2023/05/15 00:04:12;;;;;;;10.30;3.60;;;;;;;13.43;54.74;101361.61;107622;1251;97809;-71
2023/05/15 00:06:41;;;;;;;7.30;3.20;;;;;;;13.40;54.80;101362.80;107651;1251;110806;-73
2023/05/15 00:09:10;;;;;;;7.70;2.80;;;;;;;13.38;54.88;101362.63;107563;1254;109778;-72
2023/05/15 00:11:38;;;;;;;11.60;3.10;;;;;;;13.34;55.05;101365.63;107658;1254;108225;-68
2023/05/15 00:14:06;;;;;;;10.10;3.60;;;;;;;13.30;55.00;101360.39;107642;1251;97812;-71
2023/05/15 00:16:35;;;;;;;6.90;3.20;;;;;;;13.29;55.28;101361.77;107605;1251;98328;-69
2023/05/15 00:19:03;;;;;;;5.60;3.10;;;;;;;13.25;55.19;101368.77;107586;1254;110325;-69
2023/05/15 00:21:31;;;;;;;10.70;3.60;;;;;;;13.21;55.45;101369.35;107609;1251;109659;-69
2023/05/15 00:24:00;;;;;;;6.50;3.30;;;;;;;13.15;55.52;101373.69;107639;1251;107960;-69
2023/05/15 00:26:29;;;;;;;9.10;3.10;;;;;;;13.09;55.61;101375.27;107573;1254;97823;-70
2023/05/15 00:28:58;;;;;;;8.00;3.40;;;;;;;13.04;55.56;101373.73;107623;1251;97803;-70
2023/05/15 00:31:27;;;;;;;6.70;3.40;;;;;;;12.99;55.74;101371.69;107623;1251;112335;-70
2023/05/15 00:33:55;;;;;;;11.80;3.60;;;;;;;12.95;55.80;101370.16;107565;1250;109288;-68
2023/05/15 00:36:24;;;;;;;6.70;3.20;;;;;;;12.91;55.79;101365.20;107653;1250;108174;-72
2023/05/15 00:38:53;;;;;;;9.50;3.10;;;;;;;12.87;55.80;101366.84;107530;1254;97905;-69
2023/05/15 00:41:23;;;;;;;12.00;3.60;;;;;;;12.82;55.72;101360.91;107611;1256;97928;-69
2023/05/15 00:43:52;;;;;;;6.80;3.30;;;;;;;12.77;55.75;101362.46;107580;1254;111194;-73
2023/05/15 00:46:23;;;;;;;8.10;3.40;;;;;;;12.70;56.13;101362.69;107631;1251;109302;-67
2023/05/15 00:48:52;;;;;;;10.30;3.70;;;;;;;12.62;56.53;101360.66;107608;1251;108736;-74
2023/05/15 00:51:20;;;;;;;10.70;3.60;;;;;;;12.56;56.51;101360.52;107622;1251;97798;-67
2023/05/15 00:53:51;;;;;;;8.40;3.60;;;;;;;12.51;56.56;101360.22;107614;1255;98344;-70
2023/05/15 00:56:21;;;;;;;12.00;3.90;;;;;;;12.47;56.81;101364.37;107601;1251;111605;-67
2023/05/15 00:58:51;;;;;;;9.10;3.80;;;;;;;12.42;56.88;101364.94;107612;1251;108702;-68
2023/05/15 01:01:19;;;;;;;12.30;3.70;;;;;;;12.38;57.04;101363.69;107611;1252;107145;-71
2023/05/15 01:03:48;;;;;;;11.50;3.80;;;;;;;12.33;57.22;101357.77;107630;1251;97844;-72
2023/05/15 01:06:17;;;;;;;10.80;3.30;;;;;;;12.27;57.36;101362.15;107646;1251;97849;-67
2023/05/15 01:08:45;;;;;;;14.00;3.50;;;;;;;12.20;57.35;101363.25;107586;1254;112490;-71
2023/05/15 01:11:16;;;;;;;7.20;3.70;;;;;;;12.15;57.55;101365.45;107572;1251;109543;-69
2023/05/15 01:13:46;;;;;;;6.50;3.50;;;;;;;12.09;57.79;101364.52;107583;1251;108041;-68
2023/05/15 01:16:14;;;;;;;11.60;3.80;;;;;;;12.06;57.83;101363.18;107620;1251;97817;-70
2023/05/15 01:18:42;;;;;;;11.40;3.40;;;;;;;12.06;58.15;101361.73;107661;1251;97811;-68
2023/05/15 01:21:23;;;;;;;12.70;3.50;;;;;;;12.08;58.33;101363.94;107575;1251;111024;-69
2023/05/15 01:24:28;;;;;;;9.50;3.10;;;;;;;12.10;58.41;101362.33;107580;1254;108847;-66
2023/05/15 01:27:24;;;;;;;7.40;3.90;;;;;;;12.12;58.59;101363.61;107629;1256;108411;-70
2023/05/15 01:30:03;;;;;;;5.80;3.00;;;;;;;12.14;58.67;101363.21;107648;1251;97820;-68
2023/05/15 01:33:00;;;;;;;4.70;2.90;;;;;;;12.18;59.01;101359.15;107545;1251;98346;-70
2023/05/15 01:35:42;;;;;;;7.60;3.40;;;;;;;12.21;59.09;101352.15;107594;1251;111689;-68
2023/05/15 01:38:26;;;;;;;6.00;3.10;;;;;;;12.23;59.48;101346.66;107611;1252;109150;-68
2023/05/15 01:41:21;;;;;;;9.80;3.10;;;;;;;12.24;59.44;101344.63;107627;1255;108998;-68
2023/05/15 01:43:56;;;;;;;;;;;;;;;12.24;59.48;101346.02;107589;1251;97822;-70
2023/05/15 01:46:28;;;;;;;13.00;3.50;;;;;;;12.22;59.38;101346.56;107670;1255;98356;-70
2023/05/15 01:49:00;;;;;;;;;;;;;;;12.21;59.51;101346.77;107605;1254;111217;-69
2023/05/15 01:51:30;;;;;;;10.40;4.30;;;;;;;12.20;59.58;101342.73;107626;1255;109348;-69
2023/05/15 01:53:59;;;;;;;21.40;3.70;;;;;;;12.21;59.62;101339.38;107592;1254;107551;-71
2023/05/15 01:56:28;;;;;;;8.30;3.40;;;;;;;12.23;59.63;101338.55;107503;1254;97819;-68
2023/05/15 01:58:59;;;;;;;5.80;3.20;;;;;;;12.22;59.58;101338.76;107460;1258;97777;-71
2023/05/15 02:01:32;;;;;;;18.70;3.10;;;;;;;12.21;59.25;101340.81;107655;1256;111336;-69
2023/05/15 02:04:02;;;;;;;10.10;3.70;;;;;;;12.23;59.54;101341.44;107536;1254;110508;-70
2023/05/15 02:06:33;;;;;;;8.70;3.40;;;;;;;12.24;59.80;101339.85;107639;1254;108227;-68
2023/05/15 02:09:02;;;;;;;12.00;3.10;;;;;;;12.25;59.75;101338.71;107570;1254;97832;-71
2023/05/15 02:11:31;;;;;;;12.90;3.50;;;;;;;12.25;59.74;101332.58;107577;1259;97708;-71
2023/05/15 02:14:00;;;;;;;9.70;3.70;;;;;;;12.25;59.77;101328.70;107605;1254;111403;-73
2023/05/15 02:16:28;;;;;;;9.40;3.30;;;;;;;12.19;59.60;101322.65;107573;1254;109388;-69
2023/05/15 02:18:59;;;;;;;13.00;3.80;;;;;;;12.13;59.64;101322.27;107585;1255;108214;-69
2023/05/15 02:21:28;;;;;;;7.10;3.30;;;;;;;12.12;59.71;101319.73;107573;1257;97828;-70
2023/05/15 02:23:56;;;;;;;7.90;3.50;;;;;;;12.11;59.73;101314.41;107620;1254;97816;-69
2023/05/15 02:26:36;;;;;;;5.70;3.50;;;;;;;12.08;59.55;101314.28;107635;1254;110872;-70
2023/05/15 02:29:37;;;;;;;7.40;3.70;;;;;;;12.06;59.65;101309.60;107646;1256;109177;-68
2023/05/15 02:32:30;;;;;;;8.30;3.80;;;;;;;12.06;59.71;101310.52;107602;1254;108150;-69
2023/05/15 02:35:07;;;;;;;11.10;4.10;;;;;;;12.03;59.70;101310.00;107608;1254;98204;-67
2023/05/15 02:37:41;;;;;;;14.50;4.10;;;;;;;12.01;59.71;101307.71;107520;1254;97705;-70
2023/05/15 02:40:12;;;;;;;6.60;3.80;;;;;;;11.97;59.67;101306.06;107634;1254;110777;-69
2023/05/15 02:42:42;;;;;;;8.40;4.30;;;;;;;11.94;59.64;101307.77;107643;1256;109518;-71
2023/05/15 02:45:11;;;;;;;12.70;4.20;;;;;;;11.92;59.76;101308.23;107577;1254;106502;-65
2023/05/15 02:47:41;;;;;;;20.10;4.70;;;;;;;11.90;59.89;101307.84;107636;1254;97726;-68
2023/05/15 02:50:11;;;;;;;19.70;5.00;;;;;;;11.86;60.10;101307.31;107670;1254;97840;-69
2023/05/15 02:52:39;;;;;;;18.60;4.60;;;;;;;11.84;60.15;101306.05;107674;1255;110334;-70
2023/05/15 02:55:08;;;;;;;19.40;4.50;;;;;;;11.84;60.02;101310.19;107658;1251;109784;-69
2023/05/15 02:57:36;;;;;;;11.30;4.50;;;;;;;11.84;60.07;101305.11;107680;1256;107427;-70
2023/05/15 03:00:12;;;;;;;12.90;3.60;;;;;;;11.85;60.08;101303.44;107588;1253;97703;-67
2023/05/15 03:02:40;;;;;;;7.10;3.50;;;;;;;11.86;59.74;101301.20;107648;1255;97688;-71
2023/05/15 03:05:11;;;;;;;7.90;3.30;;;;;;;11.88;59.50;101301.55;107594;1257;110968;-70
2023/05/15 03:07:42;;;;;;;13.20;3.90;;;;;;;11.91;59.16;101306.15;107554;1254;110127;-68
2023/05/15 03:10:11;;;;;;;6.00;3.60;;;;;;;11.96;58.98;101304.90;107573;1256;107145;-69
2023/05/15 03:12:39;;;;;;;8.60;4.30;;;;;;;11.99;58.77;101313.84;107580;1256;97829;-67
2023/05/15 03:15:08;;;;;;;10.90;4.20;;;;;;;12.02;58.52;101315.52;107583;1254;97749;-67
2023/05/15 03:17:36;;;;;;;10.60;4.00;;;;;;;12.06;58.40;101317.53;107557;1257;111718;-68
2023/05/15 03:20:07;;;;;;;6.60;3.00;;;;;;;12.08;58.09;101320.36;107657;1255;109210;-69
2023/05/15 03:22:36;;;;;;;9.40;3.40;;;;;;;12.11;58.08;101319.05;107586;1257;107325;-69
2023/05/15 03:25:05;;;;;;;8.40;3.40;;;;;;;12.13;57.84;101323.26;107612;1251;97854;-70
2023/05/15 03:27:34;;;;;;;15.20;3.80;;;;;;;12.15;57.55;101322.88;107586;1257;98440;-68
2023/05/15 03:30:03;;;;;;;12.80;3.80;;;;;;;12.17;57.74;101324.49;107600;1251;110890;-70
2023/05/15 03:32:32;;;;;;;8.40;3.50;;;;;;;12.19;57.55;101320.89;107564;1251;110172;-67
2023/05/15 03:35:00;;;;;;;12.20;3.70;;;;;;;12.21;57.47;101325.73;107558;1254;108802;-69
2023/05/15 03:37:28;;;;;;;9.90;4.20;;;;;;;12.24;57.55;101328.17;107610;1256;97911;-67
2023/05/15 03:39:58;;;;;;;9.00;3.50;;;;;;;12.26;57.55;101325.86;107693;1251;97701;-70
2023/05/15 03:42:26;;;;;;;13.50;3.30;;;;;;;12.29;57.40;101322.94;107581;1251;111669;-68
2023/05/15 03:44:55;;;;;;;11.40;4.60;;;;;;;12.32;57.52;101319.61;107604;1251;109860;-71
2023/05/15 03:47:24;;;;;;;13.20;3.60;;;;;;;12.35;57.55;101318.45;107565;1254;108150;-69
2023/05/15 03:49:53;;;;;;;19.20;3.90;;;;;;;12.39;57.46;101314.48;107600;1255;97803;-69
2023/05/15 03:52:21;;;;;;;6.60;3.60;;;;;;;12.45;57.40;101313.58;107593;1256;97921;-65
2023/05/15 03:54:49;;;;;;;11.90;3.90;;;;;;;12.53;57.22;101317.58;107576;1253;112230;-71
2023/05/15 03:57:18;;;;;;;13.20;4.00;;;;;;;12.61;57.13;101315.79;107641;1251;109686;-67
2023/05/15 03:59:46;;;;;;;15.80;3.50;;;;;;;12.69;56.74;101307.50;107477;1260;108335;-69
2023/05/15 04:02:15;;;;;;;11.30;3.50;;;;;;;12.77;56.44;101305.05;107597;1251;97378;-69
2023/05/15 04:04:43;;;;;;;12.20;3.40;;;;;;;12.84;56.23;101300.25;107622;1251;97929;-70
2023/05/15 04:07:12;;;;;;;13.60;4.60;;;;;;;12.92;55.62;101297.56;107488;1254;111850;-68
2023/05/15 04:09:40;;;;;;;23.30;4.00;;;;;;;13.01;54.82;101297.52;107659;1256;112111;-68
2023/05/15 04:12:08;;;;;;;10.70;3.60;;;;;;;13.08;54.46;101301.70;107589;1257;108667;-69
2023/05/15 04:14:36;;;;;;;12.80;3.10;;;;;;;13.16;54.18;101304.45;107588;1251;97938;-69
2023/05/15 04:17:05;;;;;;;10.40;3.50;;;;;;;13.22;53.87;101309.61;107600;1254;97723;-70
2023/05/15 04:19:33;;;;;;;16.50;3.40;;;;;;;13.31;53.58;101312.46;107620;1251;112231;-68
2023/05/15 04:22:01;;;;;;;10.90;3.20;;;;;;;13.38;53.46;101316.80;107575;1251;110024;-68
2023/05/15 04:24:30;;;;;;;9.60;3.40;;;;;;;13.46;53.24;101311.62;107576;1255;108410;-69
2023/05/15 04:26:58;;;;;;;19.10;3.50;;;;;;;13.53;53.00;101307.38;107542;1251;97809;-68
2023/05/15 04:29:27;;;;;;;12.40;3.80;;;;;;;13.60;52.43;101305.44;107562;1251;97741;-67
2023/05/15 04:31:55;;;;;;;52.80;5.40;;;;;;;13.67;52.38;101304.84;107518;1257;110786;-66
2023/05/15 04:34:25;;;;;;;30.80;4.50;;;;;;;13.73;52.34;101306.04;107578;1254;109711;-68
2023/05/15 04:36:53;;;;;;;22.90;4.30;;;;;;;13.78;52.33;101301.77;107565;1251;107268;-67
2023/05/15 04:39:22;;;;;;;16.40;3.90;;;;;;;13.83;52.56;101299.96;107509;1251;97811;-67
2023/05/15 04:41:50;;;;;;;19.30;4.60;;;;;;;13.87;52.54;101297.55;107556;1251;98351;-67
2023/05/15 04:44:18;;;;;;;28.10;4.30;;;;;;;13.91;52.86;101298.29;107505;1251;111217;-67
2023/05/15 04:46:47;;;;;;;21.90;4.60;;;;;;;13.93;52.79;101295.21;107581;1251;110232;-71
2023/05/15 04:49:15;;;;;;;16.30;4.20;;;;;;;13.96;52.93;101293.84;107439;1255;108293;-65
2023/05/15 04:51:44;;;;;;;15.10;4.20;;;;;;;13.98;53.05;101295.77;107338;1254;97800;-66
2023/05/15 04:54:12;;;;;;;15.20;4.20;;;;;;;14.00;53.31;101293.85;107521;1254;97793;-69
2023/05/15 04:56:40;;;;;;;25.40;6.20;;;;;;;14.00;53.55;101288.98;107628;1254;111598;-69
2023/05/15 04:59:09;;;;;;;14.70;6.00;;;;;;;14.01;53.64;101284.58;107528;1251;109888;-67
2023/05/15 05:01:41;;;;;;;19.20;3.60;;;;;;;14.00;53.80;101289.84;107435;1251;107936;-69
2023/05/15 05:04:09;;;;;;;15.70;4.50;;;;;;;14.00;54.04;101293.85;107501;1251;97825;-69
2023/05/15 05:06:38;;;;;;;16.30;5.00;;;;;;;14.02;54.08;101292.41;107547;1251;97698;-68
2023/05/15 05:09:06;;;;;;;16.90;3.70;;;;;;;14.06;54.04;101290.38;107561;1251;111505;-68
2023/05/15 05:11:35;;;;;;;17.10;3.40;;;;;;;14.10;54.01;101288.74;107524;1251;109871;-66
2023/05/15 05:14:03;;;;;;;17.90;3.20;;;;;;;14.15;53.81;101290.09;107469;1254;107547;-68
2023/05/15 05:16:31;;;;;;;19.30;3.70;;;;;;;14.20;53.78;101285.30;107534;1257;98351;-70
2023/05/15 05:19:00;;;;;;;13.50;3.40;;;;;;;14.25;53.90;101286.58;107546;1251;97835;-69
2023/05/15 05:21:29;;;;;;;32.20;3.70;;;;;;;14.29;53.88;101283.80;107523;1251;111235;-70
2023/05/15 05:23:58;;;;;;;14.90;3.50;;;;;;;14.35;53.67;101281.45;107613;1251;109321;-68
2023/05/15 05:26:29;;;;;;;11.70;4.00;;;;;;;14.42;53.37;101278.98;107524;1254;107736;-74
2023/05/15 05:29:01;;;;;;;11.30;2.50;;;;;;;14.49;52.84;101277.08;107498;1257;97730;-74
2023/05/15 05:31:29;;;;;;;21.40;3.40;;;;;;;14.56;51.78;101277.80;107490;1251;97912;-69
2023/05/15 05:33:59;;;;;;;13.60;3.10;;;;;;;14.63;51.29;101278.95;107553;1251;111960;-68
2023/05/15 05:36:27;;;;;;;9.70;3.00;;;;;;;14.69;50.51;101279.30;107605;1254;109300;-67
2023/05/15 05:38:55;;;;;;;15.40;4.30;;;;;;;14.73;49.94;101282.52;107502;1256;109262;-68
2023/05/15 05:41:23;;;;;;;4.40;2.50;;;;;;;14.76;49.60;101284.81;107538;1254;97938;-68
2023/05/15 05:43:52;;;;;;;8.00;3.00;;;;;;;14.79;49.50;101286.63;107615;1255;98264;-68
2023/05/15 05:46:20;;;;;;;11.70;2.90;;;;;;;14.83;49.23;101283.39;107665;1254;111781;-69
2023/05/15 05:48:48;;;;;;;10.10;2.80;;;;;;;14.87;49.45;101280.80;107628;1251;110089;-69
2023/05/15 05:51:17;;;;;;;16.70;2.80;;;;;;;14.92;49.25;101277.27;107551;1254;107909;-68
2023/05/15 05:53:45;;;;;;;15.80;3.20;;;;;;;14.97;48.86;101279.27;107578;1257;97835;-68
2023/05/15 05:56:13;;;;;;;10.30;2.90;;;;;;;15.04;48.51;101278.38;107583;1250;97849;-66
2023/05/15 05:58:42;;;;;;;10.60;2.50;;;;;;;15.12;47.93;101279.23;107583;1254;111301;-67
2023/05/15 06:01:10;;;;;;;6.10;2.40;;;;;;;15.19;46.93;101275.82;107637;1250;109650;-68
2023/05/15 06:03:41;;;;;;;7.20;2.70;;;;;;;15.26;46.65;101274.89;107569;1251;107732;-69
2023/05/15 06:06:11;;;;;;;17.90;3.30;;;;;;;15.34;45.22;101266.57;107569;1254;97928;-67
2023/05/15 06:08:39;;;;;;;8.90;2.30;;;;;;;15.40;45.53;101266.13;107523;1251;97819;-68
2023/05/15 06:11:07;;;;;;;8.40;2.30;;;;;;;15.48;44.87;101268.08;107606;1254;113919;-68
2023/05/15 06:13:36;;;;;;;12.90;2.10;;;;;;;15.55;44.39;101261.79;107596;1251;109243;-67
2023/05/15 06:16:05;;;;;;;11.90;2.30;;;;;;;15.62;43.75;101263.17;107529;1254;107957;-69
2023/05/15 06:18:34;;;;;;;13.80;2.60;;;;;;;15.71;42.98;101265.75;107596;1254;98026;-66
2023/05/15 06:21:02;;;;;;;10.30;2.30;;;;;;;15.79;42.15;101265.27;107640;1251;97711;-70
2023/05/15 06:23:30;;;;;;;23.90;3.00;;;;;;;15.87;41.43;101268.23;107613;1254;112298;-69
2023/05/15 06:26:00;;;;;;;11.90;1.90;;;;;;;15.94;41.69;101269.34;107529;1251;109186;-66
2023/05/15 06:28:29;;;;;;;11.10;2.30;;;;;;;16.03;41.10;101263.59;107573;1254;108848;-67
2023/05/15 06:30:57;;;;;;;3.40;2.10;;;;;;;16.10;40.07;101260.83;107562;1251;97894;-66
2023/05/15 06:33:25;;;;;;;5.40;2.00;;;;;;;16.19;39.09;101262.77;107593;1250;98330;-68
2023/05/15 06:35:54;;;;;;;8.00;1.80;;;;;;;16.30;37.92;101263.10;107576;1251;111856;-66
2023/05/15 06:38:22;;;;;;;6.20;2.20;;;;;;;16.42;37.06;101256.60;107535;1251;109731;-67
2023/05/15 06:40:50;;;;;;;14.40;2.00;;;;;;;16.53;36.98;101254.68;107561;1251;108065;-68
2023/05/15 06:43:19;;;;;;;13.70;2.00;;;;;;;16.63;36.61;101247.63;107545;1251;98046;-68
2023/05/15 06:45:48;;;;;;;11.50;1.90;;;;;;;16.72;35.88;101250.30;107562;1251;97819;-69
2023/05/15 06:48:17;;;;;;;14.10;2.40;;;;;;;16.84;35.23;101256.64;107575;1250;111726;-66
2023/05/15 06:50:46;;;;;;;7.80;1.70;;;;;;;16.95;34.94;101245.76;107600;1251;108827;-71
2023/05/15 06:53:16;;;;;;;15.90;2.10;;;;;;;17.02;35.15;101246.90;107599;1251;107456;-68
2023/05/15 06:55:44;;;;;;;11.90;2.20;;;;;;;17.10;34.95;101239.77;107596;1251;97718;-67
2023/05/15 06:58:13;;;;;;;11.00;1.80;;;;;;;17.18;34.97;101231.98;107562;1251;97719;-69
2023/05/15 07:00:41;;;;;;;10.50;2.50;;;;;;;17.25;35.11;101223.84;107575;1254;112291;-69
2023/05/15 07:03:09;;;;;;;13.10;2.30;;;;;;;17.31;36.20;101222.20;107582;1250;109182;-67
2023/05/15 07:05:38;;;;;;;10.60;1.70;;;;;;;17.42;36.08;101219.98;107500;1251;107461;-69
2023/05/15 07:08:06;;;;;;;10.90;2.00;;;;;;;17.48;35.87;101212.91;107607;1255;98016;-68
2023/05/15 07:10:35;;;;;;;20.60;2.70;;;;;;;17.56;36.10;101213.73;107612;1253;98469;-70
2023/05/15 07:13:03;;;;;;;15.30;2.90;;;;;;;17.63;35.70;101213.95;107625;1251;111963;-69
2023/05/15 07:15:32;;;;;;;11.70;2.10;;;;;;;17.70;35.78;101210.70;107600;1251;109386;-68
2023/05/15 07:18:00;;;;;;;13.70;2.10;;;;;;;17.78;35.60;101207.05;107602;1253;108139;-68
2023/05/15 07:20:28;;;;;;;7.70;1.80;;;;;;;17.85;35.55;101208.13;107676;1253;97816;-68
2023/05/15 07:23:02;;;;;;;18.80;2.80;;;;;;;17.92;35.29;101210.21;107665;1251;97821;-68
2023/05/15 07:25:30;;;;;;;11.40;2.60;;;;;;;17.96;35.25;101215.20;107627;1250;111310;-68
2023/05/15 07:27:59;;;;;;;12.00;2.30;;;;;;;18.02;34.94;101210.95;107568;1251;109669;-68
2023/05/15 07:30:27;;;;;;;27.30;2.70;;;;;;;18.09;34.89;101215.42;107524;1254;108124;-69
2023/05/15 07:32:56;;;;;;;11.40;2.60;;;;;;;18.14;34.63;101214.98;107603;1254;98027;-69
2023/05/15 07:35:24;;;;;;;16.70;2.40;;;;;;;18.21;34.34;101214.45;107427;1254;98236;-68
2023/05/15 07:37:53;;;;;;;20.50;2.30;;;;;;;18.28;33.99;101211.80;107658;1254;111255;-68
2023/05/15 07:40:22;;;;;;;10.50;2.40;;;;;;;18.38;33.74;101206.17;107620;1251;108170;-66
2023/05/15 07:42:50;;;;;;;26.50;2.70;;;;;;;18.48;33.47;101210.02;107572;1251;107804;-69
2023/05/15 07:45:18;;;;;;;29.70;2.90;;;;;;;18.55;32.83;101207.84;107603;1251;97832;-68
2023/05/15 07:47:48;;;;;;;41.30;3.00;;;;;;;18.59;33.57;101202.59;107573;1250;97732;-68
2023/05/15 07:50:16;;;;;;;11.00;3.30;;;;;;;18.69;32.97;101201.69;107613;1251;112027;-68
2023/05/15 07:52:44;;;;;;;19.70;2.80;;;;;;;18.74;32.99;101195.73;107522;1251;109268;-67
2023/05/15 07:55:13;;;;;;;55.20;4.60;;;;;;;18.80;33.29;101187.28;107474;1251;108513;-66
2023/05/15 07:57:41;;;;;;;12.60;2.30;;;;;;;18.90;33.01;101185.94;107536;1254;97847;-67
2023/05/15 08:00:12;;;;;;;24.80;2.50;;;;;;;18.99;32.82;101177.08;106728;1250;1033659;-68
2023/05/15 08:02:44;;;;;;;21.70;2.60;;;;;;;19.11;32.82;101177.10;107556;1251;110822;-68
2023/05/15 08:05:14;;;;;;;24.60;2.50;;;;;;;19.23;32.45;101173.23;107508;1254;109845;-68
2023/05/15 08:07:42;;;;;;;25.60;3.00;;;;;;;19.34;32.06;101175.31;107518;1251;108738;-68
2023/05/15 08:10:12;;;;;;;13.20;2.30;;;;;;;19.43;31.97;101171.58;107523;1251;97894;-70
2023/05/15 08:12:45;;;;;;;17.90;2.60;;;;;;;19.51;31.46;101180.61;107519;1251;97691;-67
2023/05/15 08:15:14;;;;;;;30.00;2.70;;;;;;;19.58;31.46;101177.22;107518;1251;112046;-69
2023/05/15 08:17:42;;;;;;;21.70;2.50;;;;;;;19.63;31.16;101170.35;107553;1250;108528;-68
2023/05/15 08:20:12;;;;;;;12.40;2.00;;;;;;;19.68;31.01;101162.83;107528;1254;107943;-67
2023/05/15 08:22:40;;;;;;;19.30;2.50;;;;;;;19.74;31.28;101156.20;107528;1251;97822;-68
2023/05/15 08:25:09;;;;;;;18.00;2.70;;;;;;;19.82;31.53;101156.99;107526;1253;98382;-66
2023/05/15 08:27:37;;;;;;;25.20;2.40;;;;;;;19.93;31.28;101151.89;107554;1254;111010;-67
2023/05/15 08:30:07;;;;;;;8.00;2.20;;;;;;;20.01;30.94;101151.39;107526;1250;109322;-68
2023/05/15 08:32:35;;;;;;;14.00;2.80;;;;;;;20.09;30.94;101137.79;107536;1251;108431;-68
2023/05/15 08:35:04;;;;;;;16.50;2.80;;;;;;;20.14;31.05;101125.30;107481;1251;97835;-68
2023/05/15 08:37:33;;;;;;;13.90;2.40;;;;;;;20.23;31.35;101127.08;107574;1252;97700;-67
2023/05/15 08:40:04;;;;;;;19.50;2.90;;;;;;;20.36;30.71;101125.17;107517;1251;110513;-68
2023/05/15 08:42:42;;;;;;;6.70;2.40;;;;;;;20.46;30.65;101128.19;107597;1251;108605;-66
2023/05/15 08:45:12;;;;;;;36.10;2.20;;;;;;;20.56;30.88;101124.05;107525;1254;108598;-69
2023/05/15 08:47:42;;;;;;;17.50;2.50;;;;;;;20.71;30.87;101135.99;107518;1251;98260;-68
2023/05/15 08:50:16;;;;;;;15.40;2.60;;;;;;;20.87;30.79;101134.82;107569;1250;98359;-65
2023/05/15 08:52:48;;;;;;;25.10;3.20;;;;;;;21.02;30.89;101130.33;107576;1251;112241;-69
2023/05/15 08:55:16;;;;;;;23.80;2.70;;;;;;;21.18;30.59;101125.51;107496;1254;110439;-69
2023/05/15 08:57:47;;;;;;;6.70;2.00;;;;;;;21.37;30.50;101131.11;107533;1253;108200;-68
2023/05/15 09:00:18;;;;;;;14.80;3.00;;;;;;;21.55;29.63;101124.13;107500;1251;97947;-67
2023/05/15 09:02:47;;;;;;;16.70;2.70;;;;;;;21.69;28.94;101138.48;107573;1254;97697;-68
2023/05/15 09:05:15;;;;;;;27.60;2.60;;;;;;;21.79;28.19;101141.39;107602;1254;111216;-69
2023/05/15 09:07:45;;;;;;;19.50;2.70;;;;;;;21.85;27.81;101148.88;107510;1250;110587;-69
2023/05/15 09:10:13;;;;;;;19.30;2.70;;;;;;;21.91;27.29;101140.41;107598;1254;108163;-69
2023/05/15 09:12:43;;;;;;;21.40;2.50;;;;;;;22.03;27.34;101132.59;107547;1254;97911;-69
2023/05/15 09:15:16;;;;;;;16.50;2.10;;;;;;;22.22;27.45;101136.17;107622;1250;97701;-69
2023/05/15 09:17:45;;;;;;;16.90;2.80;;;;;;;22.44;27.65;101137.53;107503;1250;111387;-68
2023/05/15 09:20:31;;;;;;;31.30;3.00;;;;;;;22.68;26.98;101138.06;107535;1250;109860;-68
2023/05/15 09:23:02;;;;;;;24.40;3.80;;;;;;;22.98;25.96;101127.09;107502;1251;108288;-67
2023/05/15 09:25:36;;;;;;;29.40;3.50;;;;;;;23.29;25.49;101122.13;107544;1251;97792;-70
2023/05/15 09:28:09;;;;;;;27.00;2.80;;;;;;;23.53;24.95;101118.17;107556;1254;97708;-69
2023/05/15 09:30:40;;;;;;;29.90;3.10;;;;;;;23.69;24.63;101114.25;107586;1251;110297;-69
2023/05/15 09:33:08;;;;;;;16.80;2.50;;;;;;;23.73;24.22;101101.27;107524;1251;110108;-67
2023/05/15 09:35:38;;;;;;;14.80;2.70;;;;;;;23.73;24.51;101100.92;107470;1251;109145;-69
2023/05/15 09:38:11;;;;;;;14.10;2.90;;;;;;;23.81;24.80;101092.88;107579;1251;97809;-69
2023/05/15 09:40:39;;;;;;;12.10;2.50;;;;;;;24.03;24.70;101095.52;107526;1254;97678;-69
2023/05/15 09:43:11;;;;;;;12.30;2.40;;;;;;;24.25;24.81;101088.91;107514;1253;111298;-67
2023/05/15 09:45:39;;;;;;;14.20;2.50;;;;;;;24.48;24.89;101092.38;107657;1256;109781;-68
2023/05/15 09:48:10;;;;;;;15.00;2.30;;;;;;;24.84;24.74;101083.60;107584;1251;107528;-70
2023/05/15 09:50:40;;;;;;;13.90;2.50;;;;;;;25.18;24.73;101090.25;107561;1254;97808;-68
2023/05/15 09:53:12;;;;;;;10.90;1.90;;;;;;;25.49;24.14;101098.74;107613;1251;97720;-68
2023/05/15 09:55:42;;;;;;;13.40;2.80;;;;;;;25.71;24.33;101097.45;107669;1251;111885;-68
2023/05/15 09:58:12;;;;;;;17.80;2.40;;;;;;;25.80;23.64;101095.01;107565;1250;109618;-68
2023/05/15 10:00:42;;;;;;;20.40;2.90;;;;;;;25.80;23.75;101094.83;107645;1254;106520;-67
2023/05/15 10:03:19;;;;;;;17.20;2.10;;;;;;;26.21;24.32;101101.44;107680;1251;97828;-68
2023/05/15 10:05:47;;;;;;;30.30;2.80;;;;;;;26.71;23.08;101096.10;107589;1251;97816;-68
2023/05/15 10:08:27;;;;;;;18.90;2.00;;;;;;;27.01;22.44;101090.20;107596;1253;112409;-69
2023/05/15 10:10:59;;;;;;;16.20;2.90;;;;;;;27.38;22.53;101071.19;107631;1254;109242;-68
2023/05/15 10:13:31;;;;;;;10.80;1.80;;;;;;;27.64;22.06;101078.23;107649;1251;106278;-68
2023/05/15 10:16:02;;;;;;;18.10;2.10;;;;;;;27.94;21.85;101078.69;107605;1251;97856;-67
2023/05/15 10:18:32;;;;;;;11.30;2.80;;;;;;;28.23;21.55;101082.27;107605;1253;98356;-68
2023/05/15 10:21:03;;;;;;;11.60;1.60;;;;;;;28.49;21.07;101089.34;107622;1254;110543;-70
2023/05/15 10:23:34;;;;;;;5.70;2.10;;;;;;;28.72;21.22;101084.60;107573;1253;110088;-68
2023/05/15 10:26:12;;;;;;;19.10;2.50;;;;;;;28.98;21.32;101075.91;107589;1253;108671;-69
2023/05/15 10:28:44;;;;;;;7.00;1.80;;;;;;;29.15;21.40;101066.77;107600;1251;98495;-67
2023/05/15 10:31:13;;;;;;;10.40;1.80;;;;;;;29.08;20.98;101085.80;107629;1251;97806;-70
2023/05/15 10:33:42;;;;;;;7.40;1.60;;;;;;;28.64;21.32;101075.55;107629;1251;110563;-67
2023/05/15 10:36:13;;;;;;;5.40;1.90;;;;;;;28.21;21.35;101082.60;107643;1251;109836;-67
2023/05/15 10:38:42;;;;;;;9.40;1.90;;;;;;;27.79;21.59;101083.80;107537;1254;106848;-66
2023/05/15 10:41:12;;;;;;;5.60;2.40;;;;;;;27.55;21.86;101089.20;107551;1254;97808;-68
2023/05/15 10:43:45;;;;;;;9.50;2.00;;;;;;;27.66;22.02;101092.36;107674;1254;97834;-68
2023/05/15 10:46:15;;;;;;;11.60;1.50;;;;;;;27.98;21.71;101081.59;107591;1253;111553;-71
2023/05/15 10:48:44;;;;;;;11.00;2.00;;;;;;;28.20;21.60;101081.05;107590;1254;110071;-69
2023/05/15 10:51:25;;;;;;;6.50;1.50;;;;;;;28.40;21.41;101083.59;107585;1254;107917;-69
2023/05/15 10:53:54;;;;;;;5.20;2.00;;;;;;;28.48;21.44;101070.92;107574;1254;97828;-68
2023/05/15 10:56:29;;;;;;;16.70;2.30;;;;;;;28.51;22.02;101073.20;107490;1254;98331;-66
2023/05/15 10:59:06;;;;;;;8.80;1.70;;;;;;;28.55;21.53;101070.58;107571;1253;110251;-68
2023/05/15 11:01:36;;;;;;;18.30;2.10;;;;;;;28.61;21.32;101069.85;107628;1254;109683;-70
2023/05/15 11:04:14;;;;;;;12.10;1.60;;;;;;;28.51;21.42;101074.21;107642;1254;106143;-70
2023/05/15 11:06:45;;;;;;;10.90;2.00;;;;;;;28.35;21.70;101072.59;107553;1254;97822;-69
2023/05/15 11:09:26;;;;;;;14.50;2.30;;;;;;;28.25;21.54;101077.23;107433;1254;97878;-70
2023/05/15 11:11:59;;;;;;;14.30;1.90;;;;;;;28.00;21.16;101082.23;107589;1254;111835;-70
2023/05/15 11:14:29;;;;;;;11.00;1.90;;;;;;;27.75;21.35;101073.00;107572;1254;109024;-72
2023/05/15 11:16:59;;;;;;;4.00;1.60;;;;;;;27.67;21.69;101070.84;107623;1253;107547;-71
2023/05/15 11:19:30;;;;;;;7.60;1.30;;;;;;;27.76;22.18;101063.08;107412;1253;98037;-71
2023/05/15 11:21:59;;;;;;;12.20;2.20;;;;;;;27.94;21.85;101079.57;107595;1253;97804;-73